Time;durP1;ratioP1;P1;durP2;ratioP2;P2;SDS_P1;SDS_P2;PMS_P1;PMS_P2;Temp;Humidity;BMP_temperature;BMP_pressure;BME280_temperature;BME280_humidity;BME280_pressure;Samples;Min_cycle;Max_cycle;Signal;HPM_P1;HPM_P2
2021/07/03 00:01:51;;;;;;;21.00;14.50;;;15.80;99.90;;;;;;5072814;28;20478;-81
2021/07/03 00:04:18;;;;;;;23.20;14.00;;;15.70;99.90;;;;;;5093807;28;20538;-81
2021/07/03 00:06:45;;;;;;;20.13;13.47;;;15.70;99.90;;;;;;5095516;28;20473;-81
2021/07/03 00:09:13;;;;;;;22.37;14.33;;;15.70;99.90;;;;;;5095714;28;20571;-80
2021/07/03 00:11:41;;;;;;;19.10;13.20;;;15.70;99.90;;;;;;5097074;28;20538;-81
2021/07/03 00:14:08;;;;;;;20.70;14.77;;;15.60;99.90;;;;;;5095768;28;20479;-81
2021/07/03 00:16:34;;;;;;;20.37;13.20;;;15.60;99.90;;;;;;5094965;28;20506;-83
2021/07/03 00:19:01;;;;;;;22.17;13.60;;;15.60;99.90;;;;;;5096583;28;20470;-82
2021/07/03 00:21:28;;;;;;;21.30;14.60;;;15.60;99.90;;;;;;5096759;28;20590;-81
2021/07/03 00:23:55;;;;;;;23.10;15.53;;;15.60;99.90;;;;;;5096568;28;20466;-82
2021/07/03 00:26:23;;;;;;;23.73;16.00;;;15.60;99.90;;;;;;5096456;28;20466;-83
2021/07/03 00:28:50;;;;;;;20.07;14.10;;;15.60;99.90;;;;;;5089039;28;20474;-85
2021/07/03 00:31:17;;;;;;;24.10;15.23;;;15.50;99.90;;;;;;5086521;28;20554;-83
2021/07/03 00:33:44;;;;;;;19.67;14.73;;;15.50;99.90;;;;;;5084492;28;20542;-84
2021/07/03 00:36:10;;;;;;;17.53;13.07;;;15.50;99.90;;;;;;5086654;28;20537;-83
2021/07/03 00:38:37;;;;;;;21.07;14.13;;;15.50;99.90;;;;;;5085842;28;20451;-82
2021/07/03 00:41:04;;;;;;;21.23;14.80;;;15.40;99.90;;;;;;5086092;28;20534;-84
2021/07/03 00:43:32;;;;;;;25.23;15.40;;;15.40;99.90;;;;;;5085903;28;20550;-83
2021/07/03 00:45:59;;;;;;;21.90;15.27;;;15.40;99.90;;;;;;5085771;28;20526;-83
2021/07/03 00:48:26;;;;;;;24.60;14.03;;;15.40;99.90;;;;;;5083996;28;20546;-83
2021/07/03 00:50:53;;;;;;;21.30;14.00;;;15.30;99.90;;;;;;5080144;28;20558;-83
2021/07/03 00:53:19;;;;;;;23.47;16.43;;;15.30;99.90;;;;;;5082867;28;20514;-83
2021/07/03 00:55:46;;;;;;;25.67;16.40;;;15.30;99.90;;;;;;5080734;28;20493;-83
2021/07/03 00:58:13;;;;;;;28.17;15.53;;;15.30;99.90;;;;;;5082447;28;21041;-83
2021/07/03 01:00:42;;;;;;;21.83;14.90;;;15.30;99.90;;;;;;5082528;28;20453;-84
2021/07/03 01:03:09;;;;;;;19.20;14.60;;;15.30;99.90;;;;;;5085222;28;20486;-83
2021/07/03 01:05:37;;;;;;;21.83;14.53;;;15.20;99.90;;;;;;5090564;28;20550;-81
2021/07/03 01:08:04;;;;;;;21.90;15.53;;;15.20;99.90;;;;;;5094387;28;20447;-82
2021/07/03 01:10:31;;;;;;;24.40;16.10;;;15.20;99.90;;;;;;5093796;28;20482;-83
2021/07/03 01:12:58;;;;;;;24.10;15.33;;;15.20;99.90;;;;;;5079127;28;20453;-83
2021/07/03 01:15:26;;;;;;;25.80;15.40;;;15.20;99.90;;;;;;5079042;28;20538;-84
2021/07/03 01:17:54;;;;;;;22.60;15.30;;;15.10;99.90;;;;;;5080233;28;20489;-83
2021/07/03 01:20:21;;;;;;;23.50;15.57;;;15.10;99.90;;;;;;5080425;28;20664;-83
2021/07/03 01:22:49;;;;;;;26.97;18.07;;;15.10;99.90;;;;;;5078871;28;20451;-84
2021/07/03 01:25:17;;;;;;;23.03;14.93;;;15.10;99.90;;;;;;5081106;28;20467;-84
2021/07/03 01:27:45;;;;;;;20.23;14.70;;;15.10;99.90;;;;;;5080921;28;20450;-83
2021/07/03 01:30:13;;;;;;;23.53;15.03;;;15.10;99.90;;;;;;5080314;28;20482;-83
2021/07/03 01:32:39;;;;;;;22.03;15.13;;;15.10;99.90;;;;;;5082383;28;20451;-84
2021/07/03 01:35:07;;;;;;;22.30;14.77;;;15.10;99.90;;;;;;5081590;28;20833;-84
2021/07/03 01:37:34;;;;;;;23.53;16.30;;;15.10;99.90;;;;;;5080760;28;20479;-84
2021/07/03 01:40:04;;;;;;;20.50;15.70;;;15.10;99.90;;;;;;5081440;28;20478;-83
2021/07/03 01:42:30;;;;;;;22.20;15.33;;;15.00;99.90;;;;;;5082082;28;20454;-84
2021/07/03 01:44:57;;;;;;;24.17;16.13;;;15.00;99.90;;;;;;5081211;28;20495;-81
2021/07/03 01:47:24;;;;;;;23.60;16.80;;;15.00;99.90;;;;;;5081457;28;20447;-84
2021/07/03 01:49:51;;;;;;;24.10;15.67;;;15.00;99.90;;;;;;5078750;28;20448;-84
2021/07/03 01:52:19;;;;;;;23.10;16.87;;;15.00;99.90;;;;;;5063409;28;20479;-83
2021/07/03 01:54:46;;;;;;;22.13;15.37;;;15.00;99.90;;;;;;5064819;28;20479;-83
2021/07/03 01:57:14;;;;;;;21.47;15.00;;;15.00;99.90;;;;;;5064586;28;20539;-84
2021/07/03 01:59:41;;;;;;;24.50;15.73;;;14.90;99.90;;;;;;5064606;28;20527;-84
2021/07/03 02:02:08;;;;;;;23.23;16.63;;;14.90;99.90;;;;;;5065184;28;20506;-83
2021/07/03 02:04:35;;;;;;;24.63;16.97;;;14.90;99.90;;;;;;5063343;28;20535;-83
2021/07/03 02:07:02;;;;;;;29.70;15.53;;;14.90;99.90;;;;;;5063896;28;20535;-84
2021/07/03 02:09:28;;;;;;;26.63;17.80;;;14.90;99.90;;;;;;5062128;28;20484;-83
2021/07/03 02:11:56;;;;;;;20.80;15.40;;;14.90;99.90;;;;;;5060310;28;20484;-85
2021/07/03 02:14:24;;;;;;;23.23;15.27;;;14.90;99.90;;;;;;5061736;28;20548;-82
2021/07/03 02:16:50;;;;;;;24.47;16.07;;;14.90;99.90;;;;;;5062197;28;20472;-83
2021/07/03 02:19:19;;;;;;;24.83;16.50;;;14.80;99.90;;;;;;5080614;28;20453;-82
2021/07/03 02:21:46;;;;;;;27.90;18.27;;;14.80;99.90;;;;;;5081544;28;20964;-83
2021/07/03 02:24:13;;;;;;;22.90;15.77;;;14.80;99.90;;;;;;5078998;28;20553;-83
2021/07/03 02:26:40;;;;;;;26.67;18.20;;;14.80;99.90;;;;;;5080688;28;20514;-84
2021/07/03 02:29:07;;;;;;;23.50;17.53;;;14.80;99.90;;;;;;5081205;28;20470;-85
2021/07/03 02:31:36;;;;;;;23.70;16.90;;;14.80;99.90;;;;;;5080371;28;20489;-84
2021/07/03 02:34:04;;;;;;;24.53;15.50;;;14.80;99.90;;;;;;5083105;28;20470;-85
2021/07/03 02:36:30;;;;;;;23.83;16.40;;;14.80;99.90;;;;;;5082480;28;20443;-84
2021/07/03 02:38:57;;;;;;;25.77;16.10;;;14.80;99.90;;;;;;5081311;28;20447;-83
2021/07/03 02:41:24;;;;;;;23.70;15.03;;;14.80;99.90;;;;;;5064415;28;20448;-83
2021/07/03 02:43:51;;;;;;;21.00;14.97;;;14.80;99.90;;;;;;5061769;28;20472;-84
2021/07/03 02:46:18;;;;;;;22.30;15.67;;;14.80;99.90;;;;;;5062341;28;20524;-83
2021/07/03 02:48:46;;;;;;;26.47;15.07;;;14.70;99.90;;;;;;5061681;28;20452;-83
2021/07/03 02:51:13;;;;;;;22.20;16.17;;;14.70;99.90;;;;;;5061083;28;21029;-83
2021/07/03 02:53:40;;;;;;;21.23;14.80;;;14.70;99.90;;;;;;5058872;28;20454;-84
2021/07/03 02:56:07;;;;;;;22.20;14.50;;;14.70;99.90;;;;;;5064903;28;20482;-83
2021/07/03 02:58:34;;;;;;;24.07;15.30;;;14.60;99.90;;;;;;5081307;28;20558;-84
2021/07/03 03:01:00;;;;;;;23.97;15.47;;;14.60;99.90;;;;;;5080934;28;20493;-82
2021/07/03 03:03:27;;;;;;;21.17;15.30;;;14.60;99.90;;;;;;5079468;28;20485;-78
2021/07/03 03:05:56;;;;;;;20.83;13.87;;;14.60;99.90;;;;;;5079467;28;20840;-83
2021/07/03 03:08:23;;;;;;;19.97;14.60;;;14.60;99.90;;;;;;5078598;28;20454;-81
2021/07/03 03:10:50;;;;;;;20.30;15.40;;;14.50;99.90;;;;;;5078795;28;20485;-82
2021/07/03 03:13:16;;;;;;;20.83;12.67;;;14.50;99.90;;;;;;5071459;28;20452;-83
2021/07/03 03:15:43;;;;;;;24.30;16.43;;;14.50;99.90;;;;;;5059278;28;20559;-82
2021/07/03 03:18:10;;;;;;;24.53;15.50;;;14.50;99.90;;;;;;5058901;28;20519;-81
2021/07/03 03:20:37;;;;;;;23.67;15.77;;;14.50;99.90;;;;;;5068030;28;20443;-84
2021/07/03 03:23:05;;;;;;;20.20;14.70;;;14.50;99.90;;;;;;5065827;28;20455;-83
2021/07/03 03:25:32;;;;;;;18.57;13.77;;;14.50;99.90;;;;;;5058990;28;20476;-82
2021/07/03 03:27:59;;;;;;;20.53;14.17;;;14.50;99.90;;;;;;5078871;28;20826;-83
2021/07/03 03:30:26;;;;;;;21.70;14.20;;;14.50;99.90;;;;;;5077945;28;20462;-81
2021/07/03 03:32:52;;;;;;;21.40;15.40;;;14.40;99.90;;;;;;5082896;28;20450;-84
2021/07/03 03:35:19;;;;;;;22.27;15.13;;;14.40;99.90;;;;;;5079117;28;20467;-83
2021/07/03 03:37:47;;;;;;;27.23;16.33;;;14.50;99.90;;;;;;5080158;28;20545;-82
2021/07/03 03:40:16;;;;;;;22.97;14.00;;;14.40;99.90;;;;;;5088443;28;20511;-82
2021/07/03 03:42:43;;;;;;;26.60;16.73;;;14.40;99.90;;;;;;5091494;28;20534;-82
2021/07/03 03:45:10;;;;;;;41.13;16.70;;;14.40;99.90;;;;;;5078799;28;20471;-83
2021/07/03 03:47:37;;;;;;;23.87;15.77;;;14.50;99.90;;;;;;5059427;28;20448;-83
2021/07/03 03:50:05;;;;;;;23.30;14.80;;;14.50;99.90;;;;;;5061383;28;20456;-84
2021/07/03 03:52:31;;;;;;;25.80;17.13;;;14.50;99.90;;;;;;5062134;28;20483;-83
2021/07/03 03:54:59;;;;;;;24.17;16.80;;;14.50;99.90;;;;;;5087567;22;20479;-79
2021/07/03 03:57:30;;;;;;;24.37;15.97;;;14.50;99.90;;;;;;5077178;28;20451;-79
2021/07/03 03:59:57;;;;;;;25.20;17.30;;;14.60;99.90;;;;;;5078309;28;20458;-82
2021/07/03 04:02:24;;;;;;;26.00;18.40;;;14.60;99.90;;;;;;5077637;28;20446;-82
2021/07/03 04:04:51;;;;;;;25.03;16.83;;;14.70;99.90;;;;;;5078088;28;20443;-82
2021/07/03 04:07:19;;;;;;;26.97;16.83;;;14.70;99.90;;;;;;5078569;28;20483;-79
2021/07/03 04:09:46;;;;;;;25.30;16.97;;;14.70;99.90;;;;;;5078533;28;20497;-80
2021/07/03 04:12:13;;;;;;;23.47;15.70;;;14.80;99.90;;;;;;5077838;28;20487;-79
2021/07/03 04:14:42;;;;;;;23.27;16.20;;;14.90;99.90;;;;;;5078280;28;20447;-79
2021/07/03 04:17:09;;;;;;;25.87;16.10;;;14.90;99.90;;;;;;5074765;28;20501;-87
2021/07/03 04:19:36;;;;;;;24.50;16.13;;;15.00;99.90;;;;;;5073512;28;20451;-85
2021/07/03 04:22:03;;;;;;;24.40;16.77;;;15.10;99.90;;;;;;5074074;28;20453;-85
2021/07/03 04:24:30;;;;;;;28.27;17.47;;;15.10;99.90;;;;;;5074215;28;20451;-86
2021/07/03 04:27:03;;;;;;;28.53;17.53;;;15.20;99.90;;;;;;5074049;28;20574;-87
2021/07/03 04:29:30;;;;;;;23.27;16.53;;;15.30;99.90;;;;;;5073677;28;20458;-87
2021/07/03 04:31:58;;;;;;;22.33;16.37;;;15.30;99.90;;;;;;5076519;28;20579;-86
2021/07/03 04:34:25;;;;;;;25.70;17.23;;;15.30;99.90;;;;;;5064391;28;20451;-84
2021/07/03 04:36:52;;;;;;;26.23;18.80;;;15.40;99.90;;;;;;5055885;28;20475;-84
2021/07/03 04:39:19;;;;;;;23.90;16.37;;;15.40;99.90;;;;;;5059159;28;20839;-84
2021/07/03 04:41:46;;;;;;;22.10;15.67;;;15.50;99.90;;;;;;5060470;28;20543;-83
2021/07/03 04:44:13;;;;;;;25.03;16.63;;;15.50;99.90;;;;;;5057608;28;20514;-83
2021/07/03 04:46:40;;;;;;;23.03;16.37;;;15.60;99.90;;;;;;5057318;28;20482;-83
2021/07/03 04:49:09;;;;;;;21.50;14.80;;;15.60;99.90;;;;;;5057530;28;20479;-84
2021/07/03 04:51:36;;;;;;;21.43;14.80;;;15.70;99.90;;;;;;5059444;28;20487;-83
2021/07/03 04:54:03;;;;;;;23.30;16.37;;;15.80;99.90;;;;;;5058325;28;20479;-84
2021/07/03 04:56:30;;;;;;;23.33;14.00;;;15.80;99.90;;;;;;5058770;28;20564;-84
2021/07/03 04:58:56;;;;;;;20.80;15.50;;;15.90;99.90;;;;;;5057917;28;20522;-84
2021/07/03 05:01:24;;;;;;;22.97;15.00;;;15.90;99.90;;;;;;5056292;28;20454;-84
2021/07/03 05:03:51;;;;;;;23.23;15.27;;;16.00;99.90;;;;;;5056486;28;20443;-84
2021/07/03 05:06:19;;;;;;;20.83;15.27;;;16.10;99.90;;;;;;5057983;28;20855;-84
2021/07/03 05:08:46;;;;;;;22.97;15.60;;;16.20;99.90;;;;;;5056429;28;20442;-84
2021/07/03 05:11:13;;;;;;;23.40;15.30;;;16.30;99.90;;;;;;5056939;28;20528;-84
2021/07/03 05:13:40;;;;;;;24.07;15.13;;;16.30;99.90;;;;;;5056531;28;20939;-84
2021/07/03 05:16:07;;;;;;;23.60;16.50;;;16.40;99.90;;;;;;5058908;28;20824;-84
2021/07/03 05:18:34;;;;;;;23.67;14.53;;;16.50;99.90;;;;;;5077217;28;20519;-84
2021/07/03 05:21:00;;;;;;;28.70;15.93;;;16.50;99.90;;;;;;5077959;28;20447;-85
2021/07/03 05:23:28;;;;;;;22.90;15.43;;;16.60;99.90;;;;;;5076559;28;20459;-84
2021/07/03 05:25:57;;;;;;;20.83;13.63;;;16.70;99.90;;;;;;5056789;28;20995;-84
2021/07/03 05:28:24;;;;;;;22.30;14.63;;;16.70;99.90;;;;;;5056209;28;20467;-85
2021/07/03 05:30:52;;;;;;;24.47;15.60;;;16.90;99.90;;;;;;5058426;28;20436;-85
2021/07/03 05:33:19;;;;;;;20.50;14.90;;;16.90;99.90;;;;;;5055459;28;20480;-87
2021/07/03 05:35:46;;;;;;;19.23;13.90;;;17.00;99.90;;;;;;5054871;28;20498;-85
2021/07/03 05:38:13;;;;;;;21.30;14.53;;;17.10;99.90;;;;;;5056229;28;20548;-85
2021/07/03 05:40:42;;;;;;;20.90;13.77;;;17.10;99.90;;;;;;5054469;28;20452;-85
2021/07/03 05:43:09;;;;;;;23.00;14.07;;;17.20;99.90;;;;;;5055020;28;20484;-86
2021/07/03 05:45:36;;;;;;;21.17;13.47;;;17.30;99.90;;;;;;5058315;28;20499;-86
2021/07/03 05:48:04;;;;;;;21.70;14.30;;;17.40;99.90;;;;;;5057037;28;20459;-86
2021/07/03 05:50:30;;;;;;;19.77;13.70;;;17.40;99.90;;;;;;5055508;28;20954;-83
2021/07/03 05:52:57;;;;;;;19.40;13.03;;;17.50;99.90;;;;;;5056244;28;20483;-84
2021/07/03 05:55:24;;;;;;;19.53;14.00;;;17.60;99.90;;;;;;5061804;28;20931;-83
2021/07/03 05:57:52;;;;;;;18.93;12.63;;;17.70;99.90;;;;;;5077286;28;20439;-84
2021/07/03 06:00:20;;;;;;;20.60;14.27;;;17.70;99.90;;;;;;5075512;28;20546;-84
2021/07/03 06:02:48;;;;;;;18.70;12.63;;;17.70;99.90;;;;;;5075589;28;20478;-84
2021/07/03 06:05:15;;;;;;;20.17;13.40;;;17.70;99.90;;;;;;5075011;28;20859;-84
2021/07/03 06:07:42;;;;;;;20.43;14.23;;;17.80;99.90;;;;;;5074818;28;20455;-84
2021/07/03 06:10:10;;;;;;;19.67;12.30;;;17.80;99.90;;;;;;5073961;28;20537;-84
2021/07/03 06:12:37;;;;;;;23.20;13.30;;;17.80;99.90;;;;;;5071864;28;20478;-83
2021/07/03 06:15:07;;;;;;;17.83;12.03;;;17.80;99.90;;;;;;5074888;28;20447;-83
2021/07/03 06:17:34;;;;;;;21.77;14.73;;;17.90;99.90;;;;;;5074748;28;20542;-83
2021/07/03 06:20:01;;;;;;;19.17;12.80;;;17.90;99.90;;;;;;5075781;28;20535;-84
2021/07/03 06:22:28;;;;;;;21.67;14.23;;;18.00;99.90;;;;;;5075911;28;20455;-84
2021/07/03 06:24:55;;;;;;;19.63;14.00;;;18.00;99.90;;;;;;5076703;28;20534;-84
2021/07/03 06:27:22;;;;;;;19.60;12.87;;;18.00;99.90;;;;;;5076680;28;20451;-85
2021/07/03 06:29:49;;;;;;;19.00;13.00;;;18.00;99.90;;;;;;5060607;28;20459;-84
2021/07/03 06:32:17;;;;;;;26.27;14.37;;;18.00;99.90;;;;;;5058618;28;20502;-83
2021/07/03 06:34:44;;;;;;;17.60;11.63;;;18.10;99.90;;;;;;5066792;28;20444;-84
2021/07/03 06:37:11;;;;;;;20.83;14.37;;;18.20;99.90;;;;;;5052159;28;20511;-84
2021/07/03 06:39:38;;;;;;;17.53;12.20;;;18.30;99.90;;;;;;5051749;28;20841;-84
2021/07/03 06:42:05;;;;;;;20.60;13.33;;;18.50;99.90;;;;;;5054035;28;20522;-84
2021/07/03 06:44:31;;;;;;;22.50;14.40;;;18.60;99.90;;;;;;5058015;28;20484;-84
2021/07/03 06:46:59;;;;;;;19.53;14.17;;;18.80;99.90;;;;;;5075216;28;20559;-84
2021/07/03 06:49:27;;;;;;;20.20;13.30;;;18.90;99.90;;;;;;5077558;28;20548;-84
2021/07/03 06:51:54;;;;;;;19.47;11.87;;;19.00;99.90;;;;;;5079023;28;20475;-83
2021/07/03 06:54:21;;;;;;;19.80;13.30;;;19.20;99.90;;;;;;5077976;28;20447;-84
2021/07/03 06:56:57;;;;;;;17.87;12.20;;;19.40;99.90;;;;;;5073485;28;20546;-84
2021/07/03 06:59:24;;;;;;;20.97;13.83;;;19.60;99.90;;;;;;5060399;28;20455;-84
2021/07/03 07:01:51;;;;;;;21.87;14.03;;;19.70;99.90;;;;;;5061317;28;20890;-84
2021/07/03 07:04:18;;;;;;;17.73;12.70;;;19.90;99.90;;;;;;5062710;28;20450;-84
2021/07/03 07:06:46;;;;;;;20.90;13.50;;;20.00;99.90;;;;;;5080230;28;20579;-84
2021/07/03 07:09:13;;;;;;;20.80;14.60;;;20.20;99.90;;;;;;5076171;28;20962;-83
2021/07/03 07:11:39;;;;;;;20.80;13.80;;;20.20;99.90;;;;;;5070075;28;20535;-84
2021/07/03 07:14:06;;;;;;;24.70;14.80;;;20.20;99.90;;;;;;5063877;28;20537;-84
2021/07/03 07:16:34;;;;;;;17.70;11.20;;;20.40;99.90;;;;;;5071535;28;20846;-84
2021/07/03 07:19:01;;;;;;;22.33;13.60;;;20.50;99.90;;;;;;5055353;28;20462;-85
2021/07/03 07:21:28;;;;;;;19.43;11.77;;;20.50;99.90;;;;;;5052363;28;20810;-85
2021/07/03 07:23:57;;;;;;;17.93;10.50;;;20.50;99.90;;;;;;5055117;28;20528;-85
2021/07/03 07:26:24;;;;;;;18.53;11.17;;;20.60;99.90;;;;;;5055269;28;20542;-85
2021/07/03 07:28:51;;;;;;;17.67;10.00;;;20.50;99.90;;;;;;5055344;28;20458;-85
2021/07/03 07:31:18;;;;;;;19.03;12.17;;;20.50;99.90;;;;;;5055112;28;20986;-86
2021/07/03 07:33:45;;;;;;;20.93;12.60;;;20.50;99.90;;;;;;5057305;28;20477;-85
2021/07/03 07:36:13;;;;;;;20.83;12.60;;;20.50;99.90;;;;;;5055889;28;20564;-85
2021/07/03 07:38:40;;;;;;;19.20;11.90;;;20.70;99.90;;;;;;5055641;28;20483;-84
2021/07/03 07:41:09;;;;;;;21.27;13.80;;;20.80;99.90;;;;;;5062071;28;20538;-85
2021/07/03 07:43:36;;;;;;;23.90;13.20;;;20.90;99.90;;;;;;5060964;28;20480;-84
2021/07/03 07:46:03;;;;;;;19.53;12.23;;;21.10;99.90;;;;;;5078662;28;20451;-84
2021/07/03 07:48:32;;;;;;;23.63;12.50;;;21.10;99.90;;;;;;5078588;28;20507;-83
2021/07/03 07:51:00;;;;;;;20.90;12.70;;;21.30;99.90;;;;;;5079914;28;20448;-83
2021/07/03 07:53:28;;;;;;;22.83;12.73;;;21.50;99.90;;;;;;5078270;28;20542;-85
2021/07/03 07:55:54;;;;;;;19.40;10.90;;;21.60;99.90;;;;;;5079320;28;20539;-83
2021/07/03 07:58:23;;;;;;;19.03;10.10;;;21.90;99.90;;;;;;5072894;28;20459;-83
2021/07/03 08:00:50;;;;;;;20.13;12.33;;;22.10;99.90;;;;;;5058849;28;20452;-84
2021/07/03 08:03:17;;;;;;;20.03;11.23;;;22.20;99.90;;;;;;5059472;28;20523;-83
2021/07/03 08:05:44;;;;;;;19.20;11.00;;;22.30;99.90;;;;;;5062088;28;20468;-85
2021/07/03 08:08:11;;;;;;;16.77;9.23;;;22.40;99.90;;;;;;5067001;28;20451;-83
2021/07/03 08:10:39;;;;;;;16.77;9.23;;;22.70;99.90;;;;;;5061238;28;20452;-84
2021/07/03 08:13:06;;;;;;;20.40;11.40;;;22.90;99.90;;;;;;5063139;28;20551;-84
2021/07/03 08:15:35;;;;;;;19.63;10.07;;;22.80;99.90;;;;;;5062192;28;20558;-84
2021/07/03 08:18:03;;;;;;;20.03;10.50;;;23.00;99.90;;;;;;5062800;28;20548;-84
2021/07/03 08:20:30;;;;;;;20.20;9.90;;;23.20;99.90;;;;;;5064202;28;20448;-85
2021/07/03 08:22:57;;;;;;;21.17;11.60;;;23.40;99.90;;;;;;5064295;28;20455;-84
2021/07/03 08:25:25;;;;;;;24.80;11.90;;;23.40;99.90;;;;;;5062385;28;20538;-84
2021/07/03 08:27:53;;;;;;;23.63;11.90;;;23.40;99.90;;;;;;5068651;28;20524;-84
2021/07/03 08:30:22;;;;;;;21.50;9.57;;;23.40;99.90;;;;;;5069313;28;20555;-84
2021/07/03 08:32:51;;;;;;;18.73;9.90;;;23.60;99.90;;;;;;5066547;28;20516;-84
2021/07/03 08:35:17;;;;;;;26.27;9.93;;;23.90;99.90;;;;;;5066560;28;20448;-84
2021/07/03 08:37:44;;;;;;;21.03;10.20;;;24.10;99.90;;;;;;5070410;28;20442;-84
2021/07/03 08:40:13;;;;;;;21.83;9.73;;;24.20;99.90;;;;;;5080871;28;20515;-84
2021/07/03 08:42:40;;;;;;;26.10;8.40;;;24.30;99.90;;;;;;5065968;28;20444;-84
2021/07/03 08:45:08;;;;;;;43.43;10.93;;;24.40;99.90;;;;;;5062553;28;20453;-84
2021/07/03 08:47:39;;;;;;;82.73;69.77;;;24.60;99.90;;;;;;5063071;28;20949;-84
2021/07/03 08:50:09;;;;;;;337.00;317.60;;;24.70;99.90;;;;;;5063185;28;20530;-84
2021/07/03 08:52:36;;;;;;;305.83;287.47;;;24.90;99.90;;;;;;5064350;28;20899;-84
2021/07/03 08:55:16;;;;;;;279.63;260.73;;;25.10;99.90;;;;;;5061421;28;20499;-82
2021/07/03 08:57:45;;;;;;;1999.90;999.90;;;25.30;99.90;;;;;;5073459;28;20959;-83
2021/07/03 09:00:14;;;;;;;126.50;107.83;;;25.60;99.90;;;;;;5076418;28;20447;-83
2021/07/03 09:02:43;;;;;;;571.70;539.13;;;25.70;99.90;;;;;;5078165;28;20526;-82
2021/07/03 09:05:29;;;;;;;1999.90;999.90;;;25.90;99.90;;;;;;5080354;28;20546;-83
2021/07/03 09:08:04;;;;;;;1999.90;999.90;;;25.70;99.90;;;;;;5063032;28;20455;-82
2021/07/03 09:10:33;;;;;;;1999.90;999.90;;;25.60;99.90;;;;;;5061364;28;20486;-83
2021/07/03 09:13:01;;;;;;;1999.90;999.90;;;25.60;99.90;;;;;;5066566;28;20479;-83
2021/07/03 09:15:30;;;;;;;1999.90;999.90;;;25.70;99.90;;;;;;5065333;28;20535;-82
2021/07/03 09:18:00;;;;;;;1999.90;999.90;;;25.80;99.90;;;;;;5063923;28;20476;-83
2021/07/03 09:20:31;;;;;;;1999.90;999.90;;;25.80;99.90;;;;;;5064251;28;20975;-83
2021/07/03 09:23:08;;;;;;;1999.90;999.90;;;25.50;99.90;;;;;;5069400;28;20467;-83
2021/07/03 09:25:36;;;;;;;1999.90;999.90;;;25.50;99.90;;;;;;5060751;28;20479;-83
2021/07/03 09:28:15;;;;;;;1999.90;999.90;;;25.70;99.90;;;;;;5081111;28;20490;-84
2021/07/03 09:30:44;;;;;;;1999.90;999.90;;;25.90;99.90;;;;;;5078428;28;20531;-85
2021/07/03 09:33:17;;;;;;;1999.90;999.90;;;26.10;99.90;;;;;;5079878;28;20474;-84
2021/07/03 09:35:52;;;;;;;1999.90;999.90;;;26.30;99.90;;;;;;5079746;28;20525;-84
2021/07/03 09:38:27;;;;;;;1999.90;999.90;;;26.60;99.90;;;;;;5079575;28;20518;-83
2021/07/03 09:41:05;;;;;;;1999.90;999.90;;;26.70;99.90;;;;;;5080927;28;20445;-85
2021/07/03 09:43:32;;;;;;;1999.90;999.90;;;26.50;99.90;;;;;;5079858;28;20446;-85
2021/07/03 09:45:59;;;;;;;1999.90;999.90;;;26.70;99.90;;;;;;5069192;28;20491;-84
2021/07/03 09:48:26;;;;;;;1999.90;999.90;;;27.00;99.90;;;;;;5056269;28;21024;-85
2021/07/03 09:50:54;;;;;;;1999.90;999.90;;;27.00;99.90;;;;;;5056087;28;20817;-83
2021/07/03 09:53:21;;;;;;;1999.90;999.90;;;27.20;99.90;;;;;;5059736;28;20595;-84
2021/07/03 09:55:48;;;;;;;1999.90;999.90;;;27.20;99.90;;;;;;5059545;28;20582;-84
2021/07/03 09:58:15;;;;;;;1999.90;999.90;;;27.50;99.90;;;;;;5059562;28;20432;-85
2021/07/03 10:00:42;;;;;;;1999.90;999.90;;;27.60;99.90;;;;;;5059775;28;20447;-85
2021/07/03 10:03:09;;;;;;;1999.90;999.90;;;27.70;99.90;;;;;;5063658;28;20538;-85
2021/07/03 10:05:40;;;;;;;1999.90;999.90;;;27.50;99.90;;;;;;5079211;28;20467;-83
2021/07/03 10:08:12;;;;;;;1999.90;999.90;;;27.30;99.90;;;;;;5076131;28;20452;-85
2021/07/03 10:10:43;;;;;;;1999.90;999.90;;;27.10;99.90;;;;;;5058926;28;20452;-84
2021/07/03 10:13:16;;;;;;;1999.90;999.90;;;27.20;99.90;;;;;;5061223;28;20494;-84
2021/07/03 10:15:44;;;;;;;1999.90;999.90;;;26.90;99.90;;;;;;5059812;28;20471;-84
2021/07/03 10:18:16;;;;;;;1999.90;999.90;;;26.60;99.90;;;;;;5068848;28;20450;-84
2021/07/03 10:20:44;;;;;;;1999.90;999.90;;;26.30;99.90;;;;;;5077139;28;20455;-84
2021/07/03 10:23:12;;;;;;;1999.90;999.90;;;26.30;99.90;;;;;;5077891;28;20503;-84
2021/07/03 10:25:41;;;;;;;1999.90;999.90;;;26.50;99.90;;;;;;5077530;28;21049;-84
2021/07/03 10:28:10;;;;;;;1999.90;999.90;;;26.60;99.90;;;;;;5077454;28;20453;-84
2021/07/03 10:30:39;;;;;;;1999.90;999.90;;;26.60;99.90;;;;;;5075134;28;20448;-84
2021/07/03 10:33:07;;;;;;;1999.90;999.90;;;26.50;99.90;;;;;;5076531;28;20739;-84
2021/07/03 10:35:42;;;;;;;1999.90;999.90;;;26.30;99.90;;;;;;5072954;28;20559;-85
2021/07/03 10:38:24;;;;;;;1999.90;999.90;;;26.30;99.90;;;;;;5076616;28;20449;-84
2021/07/03 10:40:53;;;;;;;1999.90;999.90;;;26.70;99.90;;;;;;5079297;28;20508;-84
2021/07/03 10:43:21;;;;;;;1999.90;999.90;;;27.40;99.90;;;;;;5078120;28;20446;-84
2021/07/03 10:45:51;;;;;;;1999.90;999.90;;;28.00;99.90;;;;;;5074346;28;20486;-84
2021/07/03 10:48:21;;;;;;;1999.90;999.90;;;28.70;99.90;;;;;;5076573;28;20538;-84
2021/07/03 10:50:49;;;;;;;1999.90;999.90;;;28.90;99.90;;;;;;5074854;28;20542;-85
2021/07/03 10:53:26;;;;;;;1999.90;999.90;;;28.60;99.90;;;;;;5068337;28;20479;-83
2021/07/03 10:55:54;;;;;;;1999.90;999.90;;;28.50;99.90;;;;;;5075257;28;20911;-84
2021/07/03 10:58:22;;;;;;;1999.90;999.90;;;28.50;99.90;;;;;;5076007;28;21115;-84
2021/07/03 11:00:51;;;;;;;1999.90;999.90;;;29.00;99.90;;;;;;5057242;28;20538;-84
2021/07/03 11:03:21;;;;;;;1999.90;999.90;;;29.40;99.90;;;;;;5059674;28;20444;-84
2021/07/03 11:05:48;;;;;;;1999.90;999.90;;;29.50;99.90;;;;;;5064354;28;20467;-84
2021/07/03 11:08:19;;;;;;;1999.90;999.90;;;29.90;99.90;;;;;;5058940;28;20499;-85
2021/07/03 11:10:48;;;;;;;1999.90;999.90;;;29.80;99.90;;;;;;5064373;28;20480;-85
2021/07/03 11:13:22;;;;;;;1999.90;999.90;;;29.60;99.90;;;;;;5064886;28;20487;-84
2021/07/03 11:15:50;;;;;;;1999.90;999.90;;;29.60;99.90;;;;;;5057305;28;20475;-85
2021/07/03 11:18:17;;;;;;;1999.90;999.90;;;29.20;99.90;;;;;;5059414;28;20452;-84
2021/07/03 11:20:44;;;;;;;1999.90;999.90;;;29.10;99.90;;;;;;5058221;28;20443;-84
2021/07/03 11:23:13;;;;;;;125.27;112.00;;;29.10;99.90;;;;;;5066049;28;20443;-84
2021/07/03 11:25:41;;;;;;;115.33;96.73;;;29.30;99.90;;;;;;5074537;28;20493;-84
2021/07/03 11:28:11;;;;;;;1999.90;999.90;;;29.30;99.90;;;;;;5073448;28;20446;-84
2021/07/03 11:30:39;;;;;;;1999.90;999.90;;;29.90;99.90;;;;;;5059436;28;21092;-84
2021/07/03 11:33:07;;;;;;;196.20;180.37;;;30.60;99.90;;;;;;5056630;28;20781;-84
2021/07/03 11:35:35;;;;;;;292.97;273.53;;;30.70;99.90;;;;;;5057353;28;20482;-85
2021/07/03 11:38:03;;;;;;;204.33;188.67;;;30.20;99.90;;;;;;5059739;28;20455;-85
2021/07/03 11:40:32;;;;;;;1999.90;999.90;;;29.60;99.90;;;;;;5074749;28;20482;-85
2021/07/03 11:43:01;;;;;;;1999.90;999.90;;;29.20;99.90;;;;;;5077514;28;20437;-84
2021/07/03 11:45:31;;;;;;;245.20;227.77;;;29.60;99.90;;;;;;5077170;28;20478;-84
2021/07/03 11:48:05;;;;;;;162.93;147.97;;;30.40;99.90;;;;;;5079796;28;20446;-84
2021/07/03 11:50:35;;;;;;;535.83;506.17;;;31.20;99.90;;;;;;5061137;28;20962;-85
2021/07/03 11:53:04;;;;;;;1999.90;999.90;;;31.10;99.90;;;;;;5078135;28;20446;-85
2021/07/03 11:55:33;;;;;;;1999.90;999.90;;;31.10;99.90;;;;;;5077170;28;20467;-84
2021/07/03 11:58:00;;;;;;;1999.90;999.90;;;31.30;99.90;;;;;;5076608;28;20486;-84
2021/07/03 12:00:30;;;;;;;1999.90;999.90;;;31.60;99.90;;;;;;5074815;28;20431;-84
2021/07/03 12:02:58;;;;;;;203.03;186.43;;;31.80;99.90;;;;;;5069960;28;20454;-84
2021/07/03 12:05:27;;;;;;;1999.90;999.90;;;31.90;99.90;;;;;;5062919;28;20551;-85
2021/07/03 12:08:02;;;;;;;1999.90;999.90;;;32.30;95.50;;;;;;5067115;28;20519;-84
2021/07/03 12:10:35;;;;;;;1999.90;999.90;;;31.80;96.60;;;;;;5066460;28;20463;-84
2021/07/03 12:13:02;;;;;;;1999.90;999.90;;;32.10;95.40;;;;;;5067638;28;20887;-84
2021/07/03 12:15:30;;;;;;;1999.90;999.90;;;32.40;99.90;;;;;;5069735;28;20551;-84
2021/07/03 12:17:57;;;;;;;1999.90;999.90;;;31.90;98.00;;;;;;5065287;28;20444;-84
2021/07/03 12:20:27;;;;;;;1999.90;999.90;;;32.20;96.70;;;;;;5073329;28;20961;-82
2021/07/03 12:22:59;;;;;;;1999.90;999.90;;;33.30;99.90;;;;;;5075230;28;20443;-82